createdAt,value
2018-07-04T00:00:01.139Z,13.3
2018-07-04T00:01:09.027Z,13.3
2018-07-04T00:02:16.643Z,13.3
2018-07-04T00:03:24.271Z,13.3
2018-07-04T00:04:32.169Z,13.3
2018-07-04T00:05:40.076Z,13.3
2018-07-04T00:06:47.977Z,13.2
2018-07-04T00:07:55.593Z,13.2
2018-07-04T00:09:03.209Z,13.2
2018-07-04T00:10:11.100Z,13.2
2018-07-04T00:11:18.431Z,13.2
2018-07-04T00:12:26.322Z,13.3
2018-07-04T00:13:33.945Z,13.3
2018-07-04T00:14:41.859Z,13.3
2018-07-04T00:15:49.968Z,13.3
2018-07-04T00:16:57.583Z,13.3
2018-07-04T00:18:05.489Z,13.3
2018-07-04T00:19:13.384Z,13.3
2018-07-04T00:20:21.273Z,13.3
2018-07-04T00:21:29.166Z,13.3
2018-07-04T00:22:36.780Z,13.3
2018-07-04T00:23:44.679Z,13.3
2018-07-04T00:24:52.301Z,13.3
2018-07-04T00:26:14.843Z,13.2
2018-07-04T00:27:22.459Z,13.2
2018-07-04T00:28:30.354Z,13.1
2018-07-04T00:29:38.243Z,13.1
2018-07-04T00:30:46.134Z,13.1
2018-07-04T00:31:54.026Z,13.1
2018-07-04T00:33:01.917Z,13.1
2018-07-04T00:34:09.810Z,13.2
2018-07-04T00:35:17.698Z,13.2
2018-07-04T00:36:25.591Z,13.2
2018-07-04T00:37:33.211Z,13.3
2018-07-04T00:38:41.096Z,13.3
2018-07-04T00:39:48.984Z,13.3
2018-07-04T00:40:56.894Z,13.3
2018-07-04T00:42:04.784Z,13.3
2018-07-04T00:43:12.397Z,13.3
2018-07-04T00:44:20.285Z,13.3
2018-07-04T00:45:28.174Z,13.3
2018-07-04T00:46:36.083Z,13.3
2018-07-04T00:47:43.706Z,13.2
2018-07-04T00:48:51.592Z,13.2
2018-07-04T00:49:59.204Z,13.2
2018-07-04T00:51:07.097Z,13.2
2018-07-04T00:52:14.997Z,13.1
2018-07-04T00:53:22.893Z,13.1
2018-07-04T00:54:30.796Z,13.1
2018-07-04T00:55:38.687Z,13.1
2018-07-04T00:56:46.598Z,13.1
2018-07-04T00:57:54.213Z,13
2018-07-04T00:59:02.099Z,13
2018-07-04T01:00:09.989Z,13
2018-07-04T01:01:17.888Z,13
2018-07-04T01:02:25.777Z,12.9
2018-07-04T01:03:33.710Z,12.9
2018-07-04T01:04:41.000Z,12.9
2018-07-04T01:05:48.899Z,12.9
2018-07-04T01:06:56.793Z,12.9
2018-07-04T01:08:04.402Z,12.9
2018-07-04T01:09:12.285Z,12.9
2018-07-04T01:10:20.170Z,12.9
2018-07-04T01:11:28.062Z,12.9
2018-07-04T01:12:35.948Z,12.9
2018-07-04T01:13:43.847Z,12.9
2018-07-04T01:14:51.450Z,12.9
2018-07-04T01:15:59.341Z,12.9
2018-07-04T01:17:06.960Z,12.9
2018-07-04T01:18:14.569Z,12.9
2018-07-04T01:19:22.461Z,12.8
2018-07-04T01:20:30.077Z,12.8
2018-07-04T01:21:37.412Z,12.8
2018-07-04T01:22:45.297Z,12.8
2018-07-04T01:23:53.288Z,12.8
2018-07-04T01:25:01.192Z,12.8
2018-07-04T01:26:09.089Z,12.8
2018-07-04T01:27:16.992Z,12.8
2018-07-04T01:28:24.874Z,12.7
2018-07-04T01:29:32.769Z,12.7
2018-07-04T01:30:40.657Z,12.7
2018-07-04T01:31:48.547Z,12.7
2018-07-04T01:32:56.168Z,12.7
2018-07-04T01:34:04.055Z,12.7
2018-07-04T01:35:11.674Z,12.8
2018-07-04T01:36:19.282Z,12.8
2018-07-04T01:37:27.204Z,12.7
2018-07-04T01:38:35.095Z,12.7
2018-07-04T01:39:42.986Z,12.7
2018-07-04T01:40:50.894Z,12.7
2018-07-04T01:41:58.798Z,12.6
2018-07-04T01:43:06.141Z,12.6
2018-07-04T01:44:14.040Z,12.6
2018-07-04T01:45:21.928Z,12.6
2018-07-04T01:46:29.820Z,12.6
2018-07-04T01:47:37.711Z,12.6
2018-07-04T01:48:45.597Z,12.6
2018-07-04T01:49:53.490Z,12.6
2018-07-04T01:51:01.380Z,12.6
2018-07-04T01:52:09.000Z,12.6
2018-07-04T01:53:16.900Z,12.6
2018-07-04T01:54:24.791Z,12.6
2018-07-04T01:55:32.415Z,12.6
2018-07-04T01:56:40.040Z,12.6
2018-07-04T01:57:48.084Z,12.6
2018-07-04T01:58:55.989Z,12.6
2018-07-04T02:00:03.589Z,12.5
2018-07-04T02:01:11.229Z,12.5
2018-07-04T02:02:19.123Z,12.5
2018-07-04T02:03:27.015Z,12.4
2018-07-04T02:04:34.631Z,12.4
2018-07-04T02:05:42.541Z,12.4
2018-07-04T02:06:50.446Z,12.4
2018-07-04T02:07:58.063Z,12.4
2018-07-04T02:09:05.969Z,12.4
2018-07-04T02:10:13.860Z,12.4
2018-07-04T02:11:21.744Z,12.4
2018-07-04T02:12:29.596Z,12.4
2018-07-04T02:13:37.505Z,12.4
2018-07-04T02:14:45.398Z,12.4
2018-07-04T02:15:53.306Z,12.4
2018-07-04T02:17:01.199Z,12.4
2018-07-04T02:18:09.090Z,12.3
2018-07-04T02:19:16.973Z,12.3
2018-07-04T02:20:24.863Z,12.3
2018-07-04T02:21:32.965Z,12.2
2018-07-04T02:22:40.849Z,12.2
2018-07-04T02:23:48.747Z,12.2
2018-07-04T02:24:56.655Z,12.1
2018-07-04T02:26:04.537Z,12.1
2018-07-04T02:27:12.680Z,12.2
2018-07-04T02:28:20.564Z,12.1
2018-07-04T02:29:28.680Z,12.1
2018-07-04T02:30:36.570Z,12.1
2018-07-04T02:31:44.471Z,12.1
2018-07-04T02:32:52.373Z,12
2018-07-04T02:34:00.265Z,12
2018-07-04T02:35:08.155Z,12
2018-07-04T02:36:16.050Z,12
2018-07-04T02:37:23.941Z,11.9
2018-07-04T02:38:31.824Z,11.9
2018-07-04T02:39:39.751Z,11.9
2018-07-04T02:40:47.647Z,11.8
2018-07-04T02:41:55.558Z,11.9
2018-07-04T02:43:03.454Z,11.8
2018-07-04T02:44:11.342Z,11.8
2018-07-04T02:45:19.251Z,11.8
2018-07-04T02:46:26.887Z,11.8
2018-07-04T02:47:34.774Z,11.8
2018-07-04T02:48:42.674Z,11.8
2018-07-04T02:49:50.560Z,11.8
2018-07-04T02:50:58.482Z,11.8
2018-07-04T02:52:06.371Z,11.8
2018-07-04T02:53:14.263Z,11.8
2018-07-04T02:54:22.146Z,11.7
2018-07-04T02:55:30.281Z,11.7
2018-07-04T02:56:38.176Z,11.7
2018-07-04T02:57:46.065Z,11.6
2018-07-04T02:58:53.954Z,11.6
2018-07-04T03:00:01.847Z,11.6
2018-07-04T03:01:09.727Z,11.6
2018-07-04T03:02:17.629Z,11.6
2018-07-04T03:03:25.521Z,11.6
2018-07-04T03:04:33.410Z,11.6
2018-07-04T03:05:41.297Z,11.6
2018-07-04T03:06:48.912Z,11.6
2018-07-04T03:07:56.524Z,11.6
2018-07-04T03:09:04.415Z,11.6
2018-07-04T03:10:12.308Z,11.6
2018-07-04T03:11:20.198Z,11.6
2018-07-04T03:12:28.089Z,11.5
2018-07-04T03:13:35.988Z,11.5
2018-07-04T03:14:43.876Z,11.5
2018-07-04T03:15:51.760Z,11.5
2018-07-04T03:16:59.674Z,11.5
2018-07-04T03:18:07.288Z,11.4
2018-07-04T03:19:15.174Z,11.5
2018-07-04T03:20:23.080Z,11.4
2018-07-04T03:21:30.964Z,11.5
2018-07-04T03:22:38.817Z,11.5
2018-07-04T03:23:46.705Z,11.5
2018-07-04T03:24:54.809Z,11.5
2018-07-04T03:26:02.426Z,11.5
2018-07-04T03:27:10.351Z,11.5
2018-07-04T03:28:17.999Z,11.5
2018-07-04T03:29:25.584Z,11.4
2018-07-04T03:30:33.497Z,11.5
2018-07-04T03:31:41.401Z,11.5
2018-07-04T03:32:49.293Z,11.5
2018-07-04T03:33:57.196Z,11.5
2018-07-04T03:35:04.826Z,11.5
2018-07-04T03:36:12.717Z,11.5
2018-07-04T03:37:20.617Z,11.5
2018-07-04T03:38:28.549Z,11.5
2018-07-04T03:39:36.450Z,11.5
2018-07-04T03:40:44.356Z,11.5
2018-07-04T03:41:52.239Z,11.6
2018-07-04T03:43:00.187Z,11.6
2018-07-04T03:44:08.080Z,11.6
2018-07-04T03:45:15.996Z,11.6
2018-07-04T03:46:23.889Z,11.6
2018-07-04T03:47:31.776Z,11.7
2018-07-04T03:48:39.671Z,11.7
2018-07-04T03:49:47.649Z,11.6
2018-07-04T03:50:55.507Z,11.6
2018-07-04T03:52:03.121Z,11.6
2018-07-04T03:53:10.967Z,11.7
2018-07-04T03:54:18.583Z,11.8
2018-07-04T03:55:26.467Z,11.8
2018-07-04T03:56:34.395Z,11.8
2018-07-04T03:57:42.306Z,11.8
2018-07-04T03:58:50.198Z,11.8
2018-07-04T22:00:07.036Z,19.1
2018-07-04T22:01:14.956Z,19
2018-07-04T22:02:22.848Z,19
2018-07-04T22:03:31.041Z,19
2018-07-04T22:04:39.325Z,18.9
2018-07-04T22:05:47.224Z,18.9
2018-07-04T22:06:55.121Z,18.9
2018-07-04T22:08:03.015Z,18.9
2018-07-04T22:09:10.637Z,18.8
2018-07-04T22:10:18.530Z,18.8
2018-07-04T22:11:26.441Z,18.8
2018-07-04T22:12:34.333Z,18.8
2018-07-04T22:13:42.246Z,18.8
2018-07-04T22:14:50.144Z,18.7
2018-07-04T22:15:58.276Z,18.7
2018-07-04T22:17:06.180Z,18.7
2018-07-04T22:18:14.307Z,18.7
2018-07-04T22:19:22.198Z,18.6
2018-07-04T22:20:30.089Z,18.5
2018-07-04T22:21:37.980Z,18.4
2018-07-04T22:22:45.603Z,18.4
2018-07-04T22:23:53.495Z,18.4
2018-07-04T22:25:01.401Z,18.4
2018-07-04T22:26:09.313Z,18.4
2018-07-04T22:27:17.203Z,18.3
2018-07-04T22:28:25.114Z,18.3
2018-07-04T22:29:33.065Z,18.3
2018-07-04T22:30:40.957Z,18.3
2018-07-04T22:31:49.079Z,18.3
2018-07-04T22:32:56.970Z,18.3
2018-07-04T22:34:04.817Z,18.3
2018-07-04T22:35:12.715Z,18.2
2018-07-04T22:36:20.837Z,18.2
2018-07-04T22:37:28.730Z,18.2
2018-07-04T22:38:36.637Z,18.2
2018-07-04T22:39:44.525Z,18.1
2018-07-04T22:40:52.432Z,18.2
2018-07-04T22:42:00.252Z,18.2
2018-07-04T22:43:08.168Z,18.1
2018-07-04T22:44:16.076Z,18.1
2018-07-04T22:45:24.354Z,18.1
2018-07-04T22:46:32.274Z,18.1
2018-07-04T22:47:39.864Z,18.1
2018-07-04T22:48:47.765Z,18
2018-07-04T22:49:55.389Z,18
2018-07-04T22:51:03.282Z,18
2018-07-04T22:52:11.207Z,18
2018-07-04T22:53:19.091Z,18
2018-07-04T22:54:26.981Z,17.9
2018-07-04T22:55:34.880Z,17.9
2018-07-04T22:56:42.771Z,17.9
2018-07-04T22:57:50.660Z,17.8
2018-07-04T22:58:58.590Z,17.7
2018-07-04T23:00:06.484Z,17.7
2018-07-04T23:01:14.114Z,17.7
2018-07-04T23:02:22.012Z,17.7
2018-07-04T23:03:29.903Z,17.7
2018-07-04T23:04:37.796Z,17.7
2018-07-04T23:05:45.707Z,17.6
2018-07-04T23:06:53.595Z,17.7
2018-07-04T23:08:01.489Z,17.6
2018-07-04T23:09:09.378Z,17.6
2018-07-04T23:10:17.270Z,17.6
2018-07-04T23:11:25.159Z,17.6
2018-07-04T23:12:32.787Z,17.6
2018-07-04T23:13:40.404Z,17.6
2018-07-04T23:14:48.298Z,17.6
2018-07-04T23:15:56.193Z,17.6
2018-07-04T23:17:04.235Z,17.5
2018-07-04T23:18:11.849Z,17.5
2018-07-04T23:19:19.463Z,17.5
2018-07-04T23:20:27.354Z,17.4
2018-07-04T23:21:35.253Z,17.4
2018-07-04T23:22:42.865Z,17.4
2018-07-04T23:23:50.186Z,17.3
2018-07-04T23:24:58.081Z,17.3
2018-07-04T23:26:05.963Z,17.3
2018-07-04T23:27:13.861Z,17.3
2018-07-04T23:28:21.748Z,17.3
2018-07-04T23:29:29.646Z,17.3
2018-07-04T23:30:37.549Z,17.3
2018-07-04T23:31:45.447Z,17.3
2018-07-04T23:32:53.337Z,17.3
2018-07-04T23:34:01.233Z,17.3
2018-07-04T23:35:09.126Z,17.2
2018-07-04T23:36:17.014Z,17.2
2018-07-04T23:37:24.622Z,17.2
2018-07-04T23:38:32.516Z,17.2
2018-07-04T23:39:40.402Z,17.2
2018-07-04T23:40:48.287Z,17.1
2018-07-04T23:41:56.182Z,17.1
2018-07-04T23:43:04.083Z,17.1
2018-07-04T23:44:11.968Z,17.1
2018-07-04T23:45:19.863Z,17
2018-07-04T23:46:27.780Z,17
2018-07-04T23:47:35.678Z,17
2018-07-04T23:48:43.584Z,17
2018-07-04T23:49:51.483Z,16.9
2018-07-04T23:50:59.387Z,17
2018-07-04T23:52:07.285Z,16.9
2018-07-04T23:53:15.181Z,16.9
2018-07-04T23:54:23.074Z,16.9
2018-07-04T23:55:30.983Z,16.9
2018-07-04T23:56:38.879Z,16.9
2018-07-04T23:57:46.784Z,16.9
2018-07-04T23:58:54.683Z,16.9
